sensor_id;sensor_type;location;lat;lon;timestamp;pressure;altitude;pressure_sealevel;temperature;humidity
49645;BME280;36494;50.730;-1.932;2023-03-04T00:00:57;102480.26;;;5.40;100.00
49645;BME280;36494;50.730;-1.932;2023-03-04T00:03:22;102482.61;;;5.41;100.00
49645;BME280;36494;50.730;-1.932;2023-03-04T00:05:48;102480.16;;;5.39;100.00
49645;BME280;36494;50.730;-1.932;2023-03-04T00:08:13;102483.00;;;5.38;100.00
49645;BME280;36494;50.730;-1.932;2023-03-04T00:10:39;102482.88;;;5.37;100.00
49645;BME280;36494;50.730;-1.932;2023-03-04T00:13:04;102482.81;;;5.36;100.00
49645;BME280;36494;50.730;-1.932;2023-03-04T00:15:30;102483.66;;;5.35;100.00
49645;BME280;36494;50.730;-1.932;2023-03-04T00:17:55;102484.27;;;5.35;100.00
49645;BME280;36494;50.730;-1.932;2023-03-04T00:20:21;102483.52;;;5.35;100.00
49645;BME280;36494;50.730;-1.932;2023-03-04T00:22:46;102485.90;;;5.35;100.00
49645;BME280;36494;50.730;-1.932;2023-03-04T00:25:12;102488.14;;;5.32;100.00
49645;BME280;36494;50.730;-1.932;2023-03-04T00:27:37;102488.28;;;5.32;100.00
49645;BME280;36494;50.730;-1.932;2023-03-04T00:30:03;102489.08;;;5.33;100.00
49645;BME280;36494;50.730;-1.932;2023-03-04T00:32:28;102492.04;;;5.33;100.00
49645;BME280;36494;50.730;-1.932;2023-03-04T00:34:53;102490.74;;;5.34;100.00
49645;BME280;36494;50.730;-1.932;2023-03-04T00:37:19;102494.60;;;5.31;100.00
49645;BME280;36494;50.730;-1.932;2023-03-04T00:39:44;102496.94;;;5.30;100.00
49645;BME280;36494;50.730;-1.932;2023-03-04T00:42:09;102498.78;;;5.31;100.00
49645;BME280;36494;50.730;-1.932;2023-03-04T00:44:34;102499.81;;;5.32;100.00
49645;BME280;36494;50.730;-1.932;2023-03-04T00:47:00;102503.21;;;5.31;100.00
49645;BME280;36494;50.730;-1.932;2023-03-04T00:49:25;102506.76;;;5.31;100.00
49645;BME280;36494;50.730;-1.932;2023-03-04T00:51:51;102502.29;;;5.31;100.00
49645;BME280;36494;50.730;-1.932;2023-03-04T00:54:16;102502.90;;;5.32;100.00
49645;BME280;36494;50.730;-1.932;2023-03-04T00:56:41;102505.07;;;5.31;100.00
49645;BME280;36494;50.730;-1.932;2023-03-04T00:59:06;102503.74;;;5.28;100.00
49645;BME280;36494;50.730;-1.932;2023-03-04T01:01:32;102499.12;;;5.27;100.00
49645;BME280;36494;50.730;-1.932;2023-03-04T01:03:57;102501.65;;;5.25;100.00
49645;BME280;36494;50.730;-1.932;2023-03-04T01:06:23;102499.52;;;5.26;100.00
49645;BME280;36494;50.730;-1.932;2023-03-04T01:08:48;102505.06;;;5.27;100.00
49645;BME280;36494;50.730;-1.932;2023-03-04T01:11:14;102504.65;;;5.27;100.00
49645;BME280;36494;50.730;-1.932;2023-03-04T01:13:39;102506.25;;;5.25;100.00
49645;BME280;36494;50.730;-1.932;2023-03-04T01:16:05;102503.94;;;5.24;100.00
49645;BME280;36494;50.730;-1.932;2023-03-04T01:18:30;102501.42;;;5.24;100.00
49645;BME280;36494;50.730;-1.932;2023-03-04T01:20:56;102498.76;;;5.25;100.00
49645;BME280;36494;50.730;-1.932;2023-03-04T01:23:21;102499.22;;;5.25;100.00
49645;BME280;36494;50.730;-1.932;2023-03-04T01:25:46;102502.63;;;5.25;100.00
49645;BME280;36494;50.730;-1.932;2023-03-04T01:28:12;102501.43;;;5.22;100.00
49645;BME280;36494;50.730;-1.932;2023-03-04T01:30:37;102499.17;;;5.20;100.00
49645;BME280;36494;50.730;-1.932;2023-03-04T01:33:03;102498.71;;;5.21;100.00
49645;BME280;36494;50.730;-1.932;2023-03-04T01:35:28;102498.96;;;5.21;100.00
49645;BME280;36494;50.730;-1.932;2023-03-04T01:37:54;102496.10;;;5.22;100.00
49645;BME280;36494;50.730;-1.932;2023-03-04T01:40:19;102494.78;;;5.22;100.00
49645;BME280;36494;50.730;-1.932;2023-03-04T01:42:45;102490.65;;;5.21;100.00
49645;BME280;36494;50.730;-1.932;2023-03-04T01:45:13;102488.32;;;5.21;100.00
49645;BME280;36494;50.730;-1.932;2023-03-04T01:47:36;102487.14;;;5.18;100.00
49645;BME280;36494;50.730;-1.932;2023-03-04T01:50:04;102483.56;;;5.19;100.00
49645;BME280;36494;50.730;-1.932;2023-03-04T01:52:27;102479.56;;;5.19;100.00
49645;BME280;36494;50.730;-1.932;2023-03-04T01:54:52;102476.56;;;5.17;100.00
49645;BME280;36494;50.730;-1.932;2023-03-04T01:57:20;102466.24;;;5.18;100.00
49645;BME280;36494;50.730;-1.932;2023-03-04T01:59:43;102464.78;;;5.18;100.00
49645;BME280;36494;50.730;-1.932;2023-03-04T02:02:08;102463.09;;;5.16;100.00
49645;BME280;36494;50.730;-1.932;2023-03-04T02:04:34;102464.27;;;5.16;100.00
49645;BME280;36494;50.730;-1.932;2023-03-04T02:07:00;102463.12;;;5.13;100.00
49645;BME280;36494;50.730;-1.932;2023-03-04T02:09:25;102467.73;;;5.17;100.00
49645;BME280;36494;50.730;-1.932;2023-03-04T02:11:51;102466.87;;;5.18;100.00
49645;BME280;36494;50.730;-1.932;2023-03-04T02:14:16;102465.14;;;5.16;100.00
49645;BME280;36494;50.730;-1.932;2023-03-04T02:16:41;102465.60;;;5.16;100.00
49645;BME280;36494;50.730;-1.932;2023-03-04T02:19:11;102465.55;;;5.16;100.00
49645;BME280;36494;50.730;-1.932;2023-03-04T02:21:32;102464.83;;;5.14;100.00
49645;BME280;36494;50.730;-1.932;2023-03-04T02:24:02;102462.80;;;5.15;100.00
49645;BME280;36494;50.730;-1.932;2023-03-04T02:26:24;102461.39;;;5.14;100.00
49645;BME280;36494;50.730;-1.932;2023-03-04T02:28:49;102461.89;;;5.16;100.00
49645;BME280;36494;50.730;-1.932;2023-03-04T02:31:22;102462.72;;;5.16;100.00
49645;BME280;36494;50.730;-1.932;2023-03-04T02:33:38;102460.42;;;5.15;100.00
49645;BME280;36494;50.730;-1.932;2023-03-04T02:36:04;102456.25;;;5.15;100.00
49645;BME280;36494;50.730;-1.932;2023-03-04T02:38:29;102456.20;;;5.12;100.00
49645;BME280;36494;50.730;-1.932;2023-03-04T02:40:55;102456.66;;;5.12;100.00
49645;BME280;36494;50.730;-1.932;2023-03-04T02:43:20;102461.76;;;5.12;100.00
49645;BME280;36494;50.730;-1.932;2023-03-04T02:45:47;102463.98;;;5.11;100.00
49645;BME280;36494;50.730;-1.932;2023-03-04T02:48:11;102464.33;;;5.10;100.00
49645;BME280;36494;50.730;-1.932;2023-03-04T02:50:39;102464.21;;;5.10;100.00
49645;BME280;36494;50.730;-1.932;2023-03-04T02:53:01;102462.24;;;5.09;100.00
49645;BME280;36494;50.730;-1.932;2023-03-04T02:55:27;102466.46;;;5.09;100.00
49645;BME280;36494;50.730;-1.932;2023-03-04T02:57:52;102466.76;;;5.09;100.00
49645;BME280;36494;50.730;-1.932;2023-03-04T03:00:18;102466.50;;;5.08;100.00
49645;BME280;36494;50.730;-1.932;2023-03-04T03:02:43;102465.12;;;5.07;100.00
49645;BME280;36494;50.730;-1.932;2023-03-04T03:05:08;102463.74;;;5.04;100.00
49645;BME280;36494;50.730;-1.932;2023-03-04T03:07:34;102463.09;;;5.05;100.00
49645;BME280;36494;50.730;-1.932;2023-03-04T03:09:59;102462.41;;;5.04;100.00
49645;BME280;36494;50.730;-1.932;2023-03-04T03:12:24;102463.07;;;5.05;100.00
49645;BME280;36494;50.730;-1.932;2023-03-04T03:14:50;102461.74;;;5.05;100.00
49645;BME280;36494;50.730;-1.932;2023-03-04T03:17:15;102460.26;;;5.03;100.00
49645;BME280;36494;50.730;-1.932;2023-03-04T03:19:40;102457.94;;;5.04;100.00
49645;BME280;36494;50.730;-1.932;2023-03-04T03:22:06;102458.90;;;5.03;100.00
49645;BME280;36494;50.730;-1.932;2023-03-04T03:24:31;102454.33;;;5.02;100.00
49645;BME280;36494;50.730;-1.932;2023-03-04T03:26:57;102452.84;;;4.97;100.00
49645;BME280;36494;50.730;-1.932;2023-03-04T03:29:22;102452.74;;;4.98;100.00
49645;BME280;36494;50.730;-1.932;2023-03-04T03:31:47;102451.70;;;4.95;100.00
49645;BME280;36494;50.730;-1.932;2023-03-04T03:34:13;102452.42;;;4.96;100.00
49645;BME280;36494;50.730;-1.932;2023-03-04T03:36:38;102451.15;;;4.95;100.00
49645;BME280;36494;50.730;-1.932;2023-03-04T03:39:04;102451.35;;;4.97;100.00
49645;BME280;36494;50.730;-1.932;2023-03-04T03:41:30;102454.07;;;4.97;100.00
49645;BME280;36494;50.730;-1.932;2023-03-04T03:43:55;102458.28;;;4.92;100.00
49645;BME280;36494;50.730;-1.932;2023-03-04T03:46:20;102456.15;;;4.95;100.00
49645;BME280;36494;50.730;-1.932;2023-03-04T03:48:46;102456.09;;;4.88;100.00
49645;BME280;36494;50.730;-1.932;2023-03-04T03:51:11;102457.06;;;4.94;100.00
49645;BME280;36494;50.730;-1.932;2023-03-04T03:53:37;102458.81;;;4.93;100.00
49645;BME280;36494;50.730;-1.932;2023-03-04T03:56:03;102455.23;;;4.93;100.00
49645;BME280;36494;50.730;-1.932;2023-03-04T03:58:28;102457.72;;;4.90;100.00
49645;BME280;36494;50.730;-1.932;2023-03-04T04:00:53;102458.63;;;4.94;100.00
49645;BME280;36494;50.730;-1.932;2023-03-04T04:03:19;102457.42;;;4.95;100.00
49645;BME280;36494;50.730;-1.932;2023-03-04T04:05:44;102456.97;;;4.97;100.00
49645;BME280;36494;50.730;-1.932;2023-03-04T04:08:11;102459.19;;;4.97;100.00
49645;BME280;36494;50.730;-1.932;2023-03-04T04:10:35;102463.29;;;4.96;100.00
49645;BME280;36494;50.730;-1.932;2023-03-04T04:13:00;102464.88;;;4.97;100.00
49645;BME280;36494;50.730;-1.932;2023-03-04T04:15:26;102464.62;;;4.95;100.00
49645;BME280;36494;50.730;-1.932;2023-03-04T04:17:51;102465.28;;;4.94;100.00
49645;BME280;36494;50.730;-1.932;2023-03-04T04:20:17;102465.67;;;4.94;100.00
49645;BME280;36494;50.730;-1.932;2023-03-04T04:22:42;102463.48;;;4.95;100.00
49645;BME280;36494;50.730;-1.932;2023-03-04T04:25:08;102461.02;;;4.97;100.00
49645;BME280;36494;50.730;-1.932;2023-03-04T04:27:33;102459.52;;;4.95;100.00
49645;BME280;36494;50.730;-1.932;2023-03-04T04:29:59;102461.64;;;4.95;100.00
49645;BME280;36494;50.730;-1.932;2023-03-04T04:32:24;102462.23;;;4.92;100.00
49645;BME280;36494;50.730;-1.932;2023-03-04T04:34:50;102465.21;;;4.95;100.00
49645;BME280;36494;50.730;-1.932;2023-03-04T04:37:15;102465.54;;;4.94;100.00
49645;BME280;36494;50.730;-1.932;2023-03-04T04:39:41;102466.43;;;4.94;100.00
49645;BME280;36494;50.730;-1.932;2023-03-04T04:42:07;102470.29;;;4.94;100.00
49645;BME280;36494;50.730;-1.932;2023-03-04T04:44:32;102471.25;;;4.95;100.00
49645;BME280;36494;50.730;-1.932;2023-03-04T04:46:57;102474.45;;;4.95;100.00
49645;BME280;36494;50.730;-1.932;2023-03-04T04:49:22;102478.47;;;4.95;100.00
49645;BME280;36494;50.730;-1.932;2023-03-04T04:51:48;102480.95;;;4.94;100.00
49645;BME280;36494;50.730;-1.932;2023-03-04T04:54:14;102480.76;;;4.94;100.00
49645;BME280;36494;50.730;-1.932;2023-03-04T04:56:39;102479.95;;;4.95;100.00
49645;BME280;36494;50.730;-1.932;2023-03-04T04:59:04;102476.48;;;4.93;100.00
49645;BME280;36494;50.730;-1.932;2023-03-04T05:01:29;102476.22;;;4.92;100.00
49645;BME280;36494;50.730;-1.932;2023-03-04T05:03:56;102473.63;;;4.92;100.00
49645;BME280;36494;50.730;-1.932;2023-03-04T05:06:21;102474.83;;;4.90;100.00
49645;BME280;36494;50.730;-1.932;2023-03-04T05:08:46;102477.08;;;4.93;100.00
49645;BME280;36494;50.730;-1.932;2023-03-04T05:11:11;102480.01;;;4.92;100.00
49645;BME280;36494;50.730;-1.932;2023-03-04T05:13:36;102482.16;;;4.91;100.00
49645;BME280;36494;50.730;-1.932;2023-03-04T05:16:02;102484.01;;;4.93;100.00
49645;BME280;36494;50.730;-1.932;2023-03-04T05:18:27;102486.83;;;4.92;100.00
49645;BME280;36494;50.730;-1.932;2023-03-04T05:20:54;102485.43;;;4.91;100.00
49645;BME280;36494;50.730;-1.932;2023-03-04T05:23:18;102486.37;;;4.91;100.00
49645;BME280;36494;50.730;-1.932;2023-03-04T05:25:43;102485.57;;;4.91;100.00
49645;BME280;36494;50.730;-1.932;2023-03-04T05:28:09;102485.12;;;4.92;100.00
49645;BME280;36494;50.730;-1.932;2023-03-04T05:30:34;102484.01;;;4.91;100.00
49645;BME280;36494;50.730;-1.932;2023-03-04T05:32:59;102484.61;;;4.89;100.00
49645;BME280;36494;50.730;-1.932;2023-03-04T05:35:25;102485.05;;;4.91;100.00
49645;BME280;36494;50.730;-1.932;2023-03-04T05:37:50;102489.04;;;4.90;100.00
49645;BME280;36494;50.730;-1.932;2023-03-04T05:40:16;102489.80;;;4.89;100.00
49645;BME280;36494;50.730;-1.932;2023-03-04T05:42:41;102488.90;;;4.86;100.00
49645;BME280;36494;50.730;-1.932;2023-03-04T05:45:07;102491.63;;;4.87;100.00
49645;BME280;36494;50.730;-1.932;2023-03-04T05:47:31;102493.04;;;4.88;100.00
49645;BME280;36494;50.730;-1.932;2023-03-04T05:49:56;102489.59;;;4.86;100.00
49645;BME280;36494;50.730;-1.932;2023-03-04T05:52:22;102490.45;;;4.87;100.00
49645;BME280;36494;50.730;-1.932;2023-03-04T05:54:47;102488.00;;;4.85;100.00
49645;BME280;36494;50.730;-1.932;2023-03-04T05:57:13;102488.14;;;4.86;100.00
49645;BME280;36494;50.730;-1.932;2023-03-04T05:59:38;102484.89;;;4.84;100.00
49645;BME280;36494;50.730;-1.932;2023-03-04T06:02:03;102485.39;;;4.84;100.00
49645;BME280;36494;50.730;-1.932;2023-03-04T06:04:29;102485.00;;;4.83;100.00
49645;BME280;36494;50.730;-1.932;2023-03-04T06:06:54;102489.41;;;4.85;100.00
49645;BME280;36494;50.730;-1.932;2023-03-04T06:09:19;102492.96;;;4.86;100.00
49645;BME280;36494;50.730;-1.932;2023-03-04T06:11:45;102495.48;;;4.84;100.00
49645;BME280;36494;50.730;-1.932;2023-03-04T06:14:10;102493.96;;;4.82;100.00
49645;BME280;36494;50.730;-1.932;2023-03-04T06:16:36;102496.09;;;4.82;100.00
49645;BME280;36494;50.730;-1.932;2023-03-04T06:19:01;102493.89;;;4.84;100.00
49645;BME280;36494;50.730;-1.932;2023-03-04T06:21:26;102492.96;;;4.85;100.00
49645;BME280;36494;50.730;-1.932;2023-03-04T06:23:52;102488.91;;;4.82;100.00
49645;BME280;36494;50.730;-1.932;2023-03-04T06:26:17;102492.13;;;4.82;100.00
49645;BME280;36494;50.730;-1.932;2023-03-04T06:28:43;102495.48;;;4.82;100.00
49645;BME280;36494;50.730;-1.932;2023-03-04T06:31:08;102496.70;;;4.80;100.00
49645;BME280;36494;50.730;-1.932;2023-03-04T06:33:33;102498.81;;;4.80;100.00
49645;BME280;36494;50.730;-1.932;2023-03-04T06:35:59;102500.56;;;4.79;100.00
49645;BME280;36494;50.730;-1.932;2023-03-04T06:38:25;102502.32;;;4.80;100.00
49645;BME280;36494;50.730;-1.932;2023-03-04T06:40:50;102503.34;;;4.77;100.00
49645;BME280;36494;50.730;-1.932;2023-03-04T06:43:15;102503.08;;;4.76;100.00
49645;BME280;36494;50.730;-1.932;2023-03-04T06:45:41;102505.48;;;4.75;100.00
49645;BME280;36494;50.730;-1.932;2023-03-04T06:48:06;102506.46;;;4.72;100.00
49645;BME280;36494;50.730;-1.932;2023-03-04T06:50:31;102508.53;;;4.75;100.00
49645;BME280;36494;50.730;-1.932;2023-03-04T06:52:57;102513.05;;;4.76;100.00
49645;BME280;36494;50.730;-1.932;2023-03-04T06:55:23;102517.16;;;4.75;100.00
49645;BME280;36494;50.730;-1.932;2023-03-04T06:57:48;102518.31;;;4.76;100.00
49645;BME280;36494;50.730;-1.932;2023-03-04T07:00:14;102522.81;;;4.75;100.00
49645;BME280;36494;50.730;-1.932;2023-03-04T07:02:38;102525.33;;;4.72;100.00
49645;BME280;36494;50.730;-1.932;2023-03-04T07:05:05;102528.34;;;4.74;100.00
49645;BME280;36494;50.730;-1.932;2023-03-04T07:07:29;102531.92;;;4.76;100.00
49645;BME280;36494;50.730;-1.932;2023-03-04T07:09:55;102535.60;;;4.75;100.00
49645;BME280;36494;50.730;-1.932;2023-03-04T07:12:20;102534.46;;;4.74;100.00
49645;BME280;36494;50.730;-1.932;2023-03-04T07:14:46;102537.70;;;4.76;100.00
49645;BME280;36494;50.730;-1.932;2023-03-04T07:17:12;102540.33;;;4.76;100.00
49645;BME280;36494;50.730;-1.932;2023-03-04T07:19:36;102540.01;;;4.76;100.00
49645;BME280;36494;50.730;-1.932;2023-03-04T07:22:02;102538.75;;;4.76;100.00
49645;BME280;36494;50.730;-1.932;2023-03-04T07:24:27;102540.23;;;4.78;100.00
49645;BME280;36494;50.730;-1.932;2023-03-04T07:26:53;102541.06;;;4.78;100.00
49645;BME280;36494;50.730;-1.932;2023-03-04T07:29:19;102544.06;;;4.77;100.00
49645;BME280;36494;50.730;-1.932;2023-03-04T07:31:44;102545.33;;;4.78;100.00
49645;BME280;36494;50.730;-1.932;2023-03-04T07:34:12;102544.17;;;4.74;100.00
49645;BME280;36494;50.730;-1.932;2023-03-04T07:36:35;102546.59;;;4.76;100.00
49645;BME280;36494;50.730;-1.932;2023-03-04T07:39:00;102547.96;;;4.76;100.00
49645;BME280;36494;50.730;-1.932;2023-03-04T07:41:27;102547.95;;;4.76;100.00
49645;BME280;36494;50.730;-1.932;2023-03-04T07:43:51;102546.54;;;4.70;100.00
49645;BME280;36494;50.730;-1.932;2023-03-04T07:46:17;102549.36;;;4.75;100.00
49645;BME280;36494;50.730;-1.932;2023-03-04T07:48:41;102550.99;;;4.74;100.00
49645;BME280;36494;50.730;-1.932;2023-03-04T07:51:08;102551.13;;;4.72;100.00
49645;BME280;36494;50.730;-1.932;2023-03-04T07:53:33;102550.96;;;4.70;100.00
49645;BME280;36494;50.730;-1.932;2023-03-04T07:55:57;102552.76;;;4.71;100.00
49645;BME280;36494;50.730;-1.932;2023-03-04T07:58:22;102549.32;;;4.65;100.00
49645;BME280;36494;50.730;-1.932;2023-03-04T08:00:47;102550.73;;;4.69;100.00
49645;BME280;36494;50.730;-1.932;2023-03-04T08:03:13;102554.45;;;4.70;100.00
49645;BME280;36494;50.730;-1.932;2023-03-04T08:05:38;102555.54;;;4.75;100.00
49645;BME280;36494;50.730;-1.932;2023-03-04T08:08:04;102560.05;;;4.71;100.00
49645;BME280;36494;50.730;-1.932;2023-03-04T08:10:29;102560.96;;;4.77;100.00
49645;BME280;36494;50.730;-1.932;2023-03-04T08:12:54;102561.82;;;4.80;100.00
49645;BME280;36494;50.730;-1.932;2023-03-04T08:15:19;102561.77;;;4.81;100.00
49645;BME280;36494;50.730;-1.932;2023-03-04T08:17:45;102561.51;;;4.82;100.00
49645;BME280;36494;50.730;-1.932;2023-03-04T08:20:11;102562.61;;;4.81;100.00
49645;BME280;36494;50.730;-1.932;2023-03-04T08:22:35;102562.92;;;4.84;100.00
49645;BME280;36494;50.730;-1.932;2023-03-04T08:25:00;102564.02;;;4.86;100.00
49645;BME280;36494;50.730;-1.932;2023-03-04T08:27:26;102561.73;;;4.85;100.00
49645;BME280;36494;50.730;-1.932;2023-03-04T08:29:51;102558.81;;;4.87;100.00
49645;BME280;36494;50.730;-1.932;2023-03-04T08:32:17;102561.25;;;4.90;100.00
49645;BME280;36494;50.730;-1.932;2023-03-04T08:34:42;102559.64;;;4.88;100.00
49645;BME280;36494;50.730;-1.932;2023-03-04T08:37:08;102559.24;;;4.87;100.00
49645;BME280;36494;50.730;-1.932;2023-03-04T08:39:34;102556.85;;;4.88;100.00
49645;BME280;36494;50.730;-1.932;2023-03-04T08:41:59;102555.61;;;4.91;100.00
49645;BME280;36494;50.730;-1.932;2023-03-04T08:44:25;102556.21;;;4.93;100.00
49645;BME280;36494;50.730;-1.932;2023-03-04T08:46:50;102558.13;;;4.89;100.00
49645;BME280;36494;50.730;-1.932;2023-03-04T08:49:16;102558.53;;;4.95;100.00
49645;BME280;36494;50.730;-1.932;2023-03-04T08:51:41;102557.14;;;4.96;100.00
49645;BME280;36494;50.730;-1.932;2023-03-04T08:54:07;102556.94;;;4.95;100.00
49645;BME280;36494;50.730;-1.932;2023-03-04T08:56:32;102558.64;;;4.94;100.00
49645;BME280;36494;50.730;-1.932;2023-03-04T08:58:58;102560.99;;;4.93;100.00
49645;BME280;36494;50.730;-1.932;2023-03-04T09:01:23;102563.00;;;4.94;100.00
49645;BME280;36494;50.730;-1.932;2023-03-04T09:03:48;102563.05;;;4.93;100.00
49645;BME280;36494;50.730;-1.932;2023-03-04T09:06:16;102562.79;;;4.97;100.00
49645;BME280;36494;50.730;-1.932;2023-03-04T09:08:39;102564.68;;;4.96;100.00
49645;BME280;36494;50.730;-1.932;2023-03-04T09:11:05;102565.27;;;5.02;100.00
49645;BME280;36494;50.730;-1.932;2023-03-04T09:13:31;102564.25;;;5.04;100.00
49645;BME280;36494;50.730;-1.932;2023-03-04T09:15:56;102568.79;;;5.06;100.00
49645;BME280;36494;50.730;-1.932;2023-03-04T09:18:22;102568.58;;;5.04;100.00
49645;BME280;36494;50.730;-1.932;2023-03-04T09:20:46;102569.27;;;5.02;100.00
49645;BME280;36494;50.730;-1.932;2023-03-04T09:23:12;102571.72;;;5.06;100.00
49645;BME280;36494;50.730;-1.932;2023-03-04T09:25:38;102572.62;;;5.06;100.00
49645;BME280;36494;50.730;-1.932;2023-03-04T09:28:03;102571.86;;;5.06;100.00
49645;BME280;36494;50.730;-1.932;2023-03-04T09:30:28;102574.51;;;5.08;100.00
49645;BME280;36494;50.730;-1.932;2023-03-04T09:32:53;102574.93;;;5.09;100.00
49645;BME280;36494;50.730;-1.932;2023-03-04T09:35:19;102574.35;;;5.10;100.00
49645;BME280;36494;50.730;-1.932;2023-03-04T09:37:44;102576.25;;;5.09;100.00
49645;BME280;36494;50.730;-1.932;2023-03-04T09:40:16;102580.48;;;5.13;100.00
49645;BME280;36494;50.730;-1.932;2023-03-04T09:42:37;102582.31;;;5.16;100.00
49645;BME280;36494;50.730;-1.932;2023-03-04T09:45:01;102578.29;;;5.17;100.00
49645;BME280;36494;50.730;-1.932;2023-03-04T09:47:26;102578.23;;;5.18;100.00
49645;BME280;36494;50.730;-1.932;2023-03-04T09:49:55;102577.51;;;5.17;100.00
49645;BME280;36494;50.730;-1.932;2023-03-04T09:52:25;102577.70;;;5.16;100.00
49645;BME280;36494;50.730;-1.932;2023-03-04T09:54:55;102576.02;;;5.15;100.00
49645;BME280;36494;50.730;-1.932;2023-03-04T09:57:16;102575.34;;;5.16;100.00
49645;BME280;36494;50.730;-1.932;2023-03-04T09:59:39;102571.25;;;5.19;100.00
49645;BME280;36494;50.730;-1.932;2023-03-04T10:02:00;102570.65;;;5.21;100.00
49645;BME280;36494;50.730;-1.932;2023-03-04T10:04:30;102570.12;;;5.19;100.00
49645;BME280;36494;50.730;-1.932;2023-03-04T10:06:49;102570.49;;;5.18;100.00
49645;BME280;36494;50.730;-1.932;2023-03-04T10:09:17;102569.49;;;5.24;100.00
49645;BME280;36494;50.730;-1.932;2023-03-04T10:11:43;102570.78;;;5.30;100.00
49645;BME280;36494;50.730;-1.932;2023-03-04T10:14:14;102569.88;;;5.28;100.00
49645;BME280;36494;50.730;-1.932;2023-03-04T10:16:34;102570.61;;;5.29;100.00
49645;BME280;36494;50.730;-1.932;2023-03-04T10:19:00;102573.53;;;5.29;100.00
49645;BME280;36494;50.730;-1.932;2023-03-04T10:21:25;102572.79;;;5.31;100.00
49645;BME280;36494;50.730;-1.932;2023-03-04T10:23:46;102572.22;;;5.33;100.00
49645;BME280;36494;50.730;-1.932;2023-03-04T10:26:14;102576.41;;;5.34;100.00
49645;BME280;36494;50.730;-1.932;2023-03-04T10:28:38;102578.75;;;5.26;100.00
49645;BME280;36494;50.730;-1.932;2023-03-04T10:31:08;102577.16;;;5.30;100.00
49645;BME280;36494;50.730;-1.932;2023-03-04T10:33:30;102574.69;;;5.34;100.00
49645;BME280;36494;50.730;-1.932;2023-03-04T10:35:59;102572.26;;;5.37;100.00
49645;BME280;36494;50.730;-1.932;2023-03-04T10:38:20;102571.28;;;5.41;100.00
49645;BME280;36494;50.730;-1.932;2023-03-04T10:40:44;102572.37;;;5.44;100.00
49645;BME280;36494;50.730;-1.932;2023-03-04T10:43:15;102570.48;;;5.45;100.00
49645;BME280;36494;50.730;-1.932;2023-03-04T10:45:38;102568.87;;;5.48;100.00
49645;BME280;36494;50.730;-1.932;2023-03-04T10:48:00;102566.20;;;5.46;100.00
49645;BME280;36494;50.730;-1.932;2023-03-04T10:50:27;102565.01;;;5.48;100.00
49645;BME280;36494;50.730;-1.932;2023-03-04T10:52:52;102566.30;;;5.53;100.00
49645;BME280;36494;50.730;-1.932;2023-03-04T10:55:19;102567.38;;;5.56;100.00
49645;BME280;36494;50.730;-1.932;2023-03-04T10:57:43;102566.38;;;5.59;100.00
49645;BME280;36494;50.730;-1.932;2023-03-04T11:02:34;102565.17;;;5.59;100.00
49645;BME280;36494;50.730;-1.932;2023-03-04T11:05:16;102564.11;;;5.64;100.00
49645;BME280;36494;50.730;-1.932;2023-03-04T11:07:26;102561.66;;;5.60;100.00
49645;BME280;36494;50.730;-1.932;2023-03-04T11:09:50;102557.27;;;5.64;100.00
49645;BME280;36494;50.730;-1.932;2023-03-04T11:12:19;102553.54;;;5.64;100.00
49645;BME280;36494;50.730;-1.932;2023-03-04T11:14:45;102555.53;;;5.63;100.00
49645;BME280;36494;50.730;-1.932;2023-03-04T11:17:16;102555.58;;;5.69;100.00
49645;BME280;36494;50.730;-1.932;2023-03-04T11:19:37;102554.72;;;5.74;100.00
49645;BME280;36494;50.730;-1.932;2023-03-04T11:21:59;102549.48;;;5.76;100.00
49645;BME280;36494;50.730;-1.932;2023-03-04T11:24:25;102547.88;;;5.73;100.00
49645;BME280;36494;50.730;-1.932;2023-03-04T11:26:51;102545.29;;;5.78;100.00
49645;BME280;36494;50.730;-1.932;2023-03-04T11:29:17;102545.78;;;5.77;100.00
49645;BME280;36494;50.730;-1.932;2023-03-04T11:31:45;102543.48;;;5.81;100.00
49645;BME280;36494;50.730;-1.932;2023-03-04T11:34:10;102544.29;;;5.84;100.00
49645;BME280;36494;50.730;-1.932;2023-03-04T11:36:34;102542.23;;;5.81;100.00
49645;BME280;36494;50.730;-1.932;2023-03-04T11:38:57;102537.87;;;5.87;100.00
49645;BME280;36494;50.730;-1.932;2023-03-04T11:41:25;102537.11;;;5.80;100.00
49645;BME280;36494;50.730;-1.932;2023-03-04T11:43:48;102534.62;;;5.80;100.00
49645;BME280;36494;50.730;-1.932;2023-03-04T11:48:47;102531.96;;;5.87;100.00
49645;BME280;36494;50.730;-1.932;2023-03-04T11:51:05;102528.31;;;5.84;100.00
49645;BME280;36494;50.730;-1.932;2023-03-04T11:53:36;102519.79;;;5.91;100.00
49645;BME280;36494;50.730;-1.932;2023-03-04T11:56:06;102517.23;;;5.94;100.00
49645;BME280;36494;50.730;-1.932;2023-03-04T12:00:50;102504.85;;;5.95;100.00
49645;BME280;36494;50.730;-1.932;2023-03-04T12:03:22;102506.81;;;5.99;100.00
49645;BME280;36494;50.730;-1.932;2023-03-04T12:05:44;102503.51;;;6.06;100.00
49645;BME280;36494;50.730;-1.932;2023-03-04T12:08:20;102501.35;;;6.07;100.00
49645;BME280;36494;50.730;-1.932;2023-03-04T12:10:30;102498.70;;;6.02;100.00
49645;BME280;36494;50.730;-1.932;2023-03-04T12:13:06;102497.53;;;6.02;100.00
49645;BME280;36494;50.730;-1.932;2023-03-04T12:15:22;102495.28;;;6.01;100.00
49645;BME280;36494;50.730;-1.932;2023-03-04T12:17:57;102492.28;;;6.00;100.00
49645;BME280;36494;50.730;-1.932;2023-03-04T12:20:20;102492.69;;;6.01;100.00
49645;BME280;36494;50.730;-1.932;2023-03-04T12:22:43;102490.82;;;6.03;100.00
49645;BME280;36494;50.730;-1.932;2023-03-04T12:25:17;102491.82;;;6.04;100.00
49645;BME280;36494;50.730;-1.932;2023-03-04T12:27:31;102493.19;;;6.06;100.00
49645;BME280;36494;50.730;-1.932;2023-03-04T12:29:57;102489.54;;;6.12;100.00
49645;BME280;36494;50.730;-1.932;2023-03-04T12:32:22;102489.90;;;6.09;100.00
49645;BME280;36494;50.730;-1.932;2023-03-04T12:34:54;102484.96;;;6.10;100.00
49645;BME280;36494;50.730;-1.932;2023-03-04T12:37:16;102484.96;;;6.13;100.00